Time;durP1;ratioP1;P1;durP2;ratioP2;P2;SDS_P1;SDS_P2;PMS_P1;PMS_P2;Temp;Humidity;BMP_temperature;BMP_pressure;BME280_temperature;BME280_humidity;BME280_pressure;Samples;Min_cycle;Max_cycle;Signal;HPM_P1;HPM_P2
2021/08/22 00:02:13;;;;;;;8.17;7.37;;;;;;;;;;5032820;28;20716;-74
2021/08/22 00:04:39;;;;;;;6.83;6.23;;;;;;;;;;5032965;28;20463;-74
2021/08/22 00:07:05;;;;;;;8.80;8.10;;;;;;;;;;5032665;28;20499;-74
2021/08/22 00:09:31;;;;;;;8.93;7.80;;;;;;;;;;5032426;28;20779;-74
2021/08/22 00:15:01;;;;;;;7.40;6.80;;;;;;;;;;5032438;28;20790;-74
2021/08/22 00:17:27;;;;;;;9.63;7.77;;;;;;;;;;5032441;28;20467;-75
2021/08/22 00:19:53;;;;;;;8.73;7.37;;;;;;;;;;5032413;28;20894;-76
2021/08/22 00:22:19;;;;;;;7.97;7.13;;;;;;;;;;5031706;28;20423;-76
2021/08/22 00:24:45;;;;;;;8.90;8.00;;;;;;;;;;5032581;28;20927;-74
2021/08/22 00:30:14;;;;;;;5.73;4.67;;;;;;;;;;5032192;28;20934;-75
2021/08/22 00:32:40;;;;;;;2.80;2.60;;;;;;;;;;5032454;28;20408;-75
2021/08/22 00:35:06;;;;;;;4.43;3.67;;;;;;;;;;5032262;28;21049;-76
2021/08/22 00:37:32;;;;;;;4.17;3.10;;;;;;;;;;5032493;28;20507;-74
2021/08/22 00:39:58;;;;;;;3.10;2.80;;;;;;;;;;5032087;28;20740;-75
2021/08/22 00:45:28;;;;;;;4.87;2.67;;;;;;;;;;5032176;28;20427;-76
2021/08/22 00:47:56;;;;;;;3.17;2.30;;;;;;;;;;5032185;28;20404;-74
2021/08/22 00:50:22;;;;;;;4.10;1.97;;;;;;;;;;5032126;28;20981;-75
2021/08/22 00:52:50;;;;;;;7.00;2.07;;;;;;;;;;5032463;28;20520;-75
2021/08/22 00:55:16;;;;;;;3.50;2.00;;;;;;;;;;5032111;28;20423;-75
2021/08/22 00:57:42;;;;;;;4.20;2.00;;;;;;;;;;5032218;28;20412;-75
2021/08/22 01:00:10;;;;;;;3.50;2.00;;;;;;;;;;5031848;28;20517;-75
2021/08/22 01:02:40;;;;;;;3.20;1.80;;;;;;;;;;5032104;28;20490;-73
2021/08/22 01:05:11;;;;;;;3.23;2.20;;;;;;;;;;5031970;28;20412;-77
2021/08/22 01:07:57;;;;;;;3.20;2.20;;;;;;;;;;5032549;28;20423;-72
2021/08/22 01:10:25;;;;;;;2.77;2.30;;;;;;;;;;5031474;28;20572;-74
2021/08/22 01:13:04;;;;;;;4.63;2.90;;;;;;;;;;5032169;28;20503;-76
2021/08/22 01:15:33;;;;;;;4.20;2.70;;;;;;;;;;5031853;28;20495;-76
2021/08/22 01:18:00;;;;;;;3.37;2.77;;;;;;;;;;5031898;28;20511;-75
2021/08/22 01:20:43;;;;;;;4.40;2.97;;;;;;;;;;5030521;28;20416;-75
2021/08/22 01:23:10;;;;;;;4.60;2.80;;;;;;;;;;5032054;28;20427;-76
2021/08/22 01:25:37;;;;;;;4.40;3.37;;;;;;;;;;5032017;28;20432;-72
2021/08/22 01:28:06;;;;;;;3.80;2.97;;;;;;;;;;5032110;28;20423;-73
2021/08/22 01:30:36;;;;;;;4.50;3.30;;;;;;;;;;5032035;28;20420;-75
2021/08/22 01:33:02;;;;;;;2.93;2.73;;;;;;;;;;5031847;28;20436;-74
2021/08/22 01:35:29;;;;;;;4.63;3.77;;;;;;;;;;5035197;28;20420;-75
2021/08/22 01:37:55;;;;;;;3.60;2.57;;;;;;;;;;5035463;28;20415;-75
2021/08/22 01:46:11;;;;;;;3.47;3.10;;;;;;;;;;5035360;28;20450;-75
2021/08/22 01:48:39;;;;;;;3.67;2.80;;;;;;;;;;5035407;28;20465;-75
2021/08/22 01:51:05;;;;;;;6.50;3.47;;;;;;;;;;5035379;28;20783;-75
2021/08/22 01:53:32;;;;;;;4.43;2.97;;;;;;;;;;5035482;28;20797;-76
2021/08/22 01:55:58;;;;;;;3.40;3.10;;;;;;;;;;5034887;28;20478;-76
2021/08/22 01:58:24;;;;;;;4.80;2.53;;;;;;;;;;5035455;28;20768;-73
2021/08/22 02:00:51;;;;;;;3.30;2.73;;;;;;;;;;5035239;28;20506;-76
2021/08/22 02:03:29;;;;;;;3.83;2.77;;;;;;;;;;5035119;28;20491;-76
2021/08/22 02:05:57;;;;;;;3.20;2.67;;;;;;;;;;5035007;28;20511;-75
2021/08/22 02:08:26;;;;;;;4.20;2.70;;;;;;;;;;5035043;28;20942;-75
2021/08/22 02:11:03;;;;;;;3.30;2.80;;;;;;;;;;5034557;28;20480;-75
2021/08/22 02:13:33;;;;;;;4.13;2.70;;;;;;;;;;5035023;28;20411;-76
2021/08/22 02:15:59;;;;;;;3.07;2.73;;;;;;;;;;5034836;28;20475;-74
2021/08/22 02:18:26;;;;;;;3.10;2.50;;;;;;;;;;5034756;28;20899;-73
2021/08/22 02:20:52;;;;;;;3.03;2.70;;;;;;;;;;5033400;28;20925;-75
2021/08/22 02:23:19;;;;;;;2.93;2.53;;;;;;;;;;5034767;28;20482;-74
2021/08/22 02:25:45;;;;;;;2.97;2.73;;;;;;;;;;5034117;28;20428;-74
2021/08/22 02:28:11;;;;;;;2.53;2.30;;;;;;;;;;5033349;28;20435;-74
2021/08/22 02:30:37;;;;;;;4.17;2.97;;;;;;;;;;5034593;28;20510;-75
2021/08/22 02:33:04;;;;;;;4.17;3.13;;;;;;;;;;5034572;28;20416;-74
2021/08/22 02:35:30;;;;;;;4.37;3.13;;;;;;;;;;5034380;28;20801;-73
2021/08/22 02:37:56;;;;;;;3.40;2.87;;;;;;;;;;5034375;28;20462;-76
2021/08/22 02:40:23;;;;;;;3.30;2.70;;;;;;;;;;5034214;28;20426;-75
2021/08/22 02:45:52;;;;;;;3.83;2.87;;;;;;;;;;5033449;28;20426;-76
2021/08/22 02:48:18;;;;;;;4.20;3.40;;;;;;;;;;5034181;28;20420;-74
2021/08/22 02:50:44;;;;;;;2.93;2.57;;;;;;;;;;5034207;28;20408;-75
2021/08/22 02:53:10;;;;;;;3.40;2.77;;;;;;;;;;5034054;28;20895;-75
2021/08/22 02:55:36;;;;;;;3.37;2.50;;;;;;;;;;5033750;28;20918;-76
2021/08/22 03:01:06;;;;;;;3.50;2.53;;;;;;;;;;5033997;28;20423;-75
2021/08/22 03:03:32;;;;;;;3.93;2.70;;;;;;;;;;5033902;28;20416;-75
2021/08/22 03:05:57;;;;;;;2.90;2.50;;;;;;;;;;5032528;28;20435;-75
2021/08/22 03:08:23;;;;;;;3.57;3.07;;;;;;;;;;5033727;28;20827;-73
2021/08/22 03:10:49;;;;;;;5.00;3.70;;;;;;;;;;5032118;28;20518;-74
2021/08/22 03:16:38;;;;;;;3.50;3.13;;;;;;;;;;5033690;28;20493;-74
2021/08/22 03:19:04;;;;;;;4.20;3.80;;;;;;;;;;5033684;28;20502;-74
2021/08/22 03:21:31;;;;;;;3.90;3.50;;;;;;;;;;5033510;28;20427;-74
2021/08/22 03:23:57;;;;;;;4.67;3.70;;;;;;;;;;5033475;28;20412;-74
2021/08/22 03:26:23;;;;;;;4.17;3.70;;;;;;;;;;5033305;28;20546;-74
2021/08/22 03:28:49;;;;;;;4.77;4.37;;;;;;;;;;5033249;28;20426;-75
2021/08/22 03:31:15;;;;;;;4.70;4.17;;;;;;;;;;5033364;28;20423;-74
2021/08/22 03:33:41;;;;;;;7.37;3.90;;;;;;;;;;5033208;28;20794;-74
2021/08/22 03:36:07;;;;;;;5.33;4.83;;;;;;;;;;5033210;28;20900;-75
2021/08/22 03:38:33;;;;;;;4.83;3.90;;;;;;;;;;5033144;28;20455;-75
2021/08/22 03:40:59;;;;;;;4.37;3.97;;;;;;;;;;5033020;28;20412;-75
2021/08/22 03:46:28;;;;;;;7.23;3.87;;;;;;;;;;5033241;28;20427;-76
2021/08/22 03:48:54;;;;;;;5.37;4.67;;;;;;;;;;5033584;28;20887;-76
2021/08/22 03:51:23;;;;;;;5.20;4.80;;;;;;;;;;5033553;28;20435;-76
2021/08/22 03:53:49;;;;;;;4.53;4.13;;;;;;;;;;5033522;28;20457;-77
2021/08/22 03:56:16;;;;;;;3.87;3.57;;;;;;;;;;5033198;28;20467;-76
2021/08/22 04:01:46;;;;;;;5.20;3.80;;;;;;;;;;5033312;28;20422;-76
2021/08/22 04:04:12;;;;;;;4.23;3.83;;;;;;;;;;5033384;28;20514;-76
2021/08/22 04:06:40;;;;;;;4.47;4.07;;;;;;;;;;5033258;28;20420;-77
2021/08/22 04:09:07;;;;;;;4.73;4.30;;;;;;;;;;5033208;28;20473;-76
2021/08/22 04:11:33;;;;;;;4.10;3.80;;;;;;;;;;5032830;28;20570;-76
2021/08/22 04:13:59;;;;;;;4.67;3.90;;;;;;;;;;5033143;28;20428;-76
2021/08/22 04:16:25;;;;;;;4.73;4.23;;;;;;;;;;5032937;28;20463;-75
2021/08/22 04:18:51;;;;;;;4.97;3.90;;;;;;;;;;5033040;28;20477;-76
2021/08/22 04:21:17;;;;;;;4.73;4.33;;;;;;;;;;5033304;28;20431;-76
2021/08/22 04:23:43;;;;;;;3.83;3.53;;;;;;;;;;5033160;28;20412;-75
2021/08/22 04:26:09;;;;;;;4.03;3.63;;;;;;;;;;5033098;28;20867;-75
2021/08/22 04:31:38;;;;;;;4.07;3.67;;;;;;;;;;5033118;28;20469;-75
2021/08/22 04:34:04;;;;;;;4.30;3.90;;;;;;;;;;5033281;28;20906;-75
2021/08/22 04:36:30;;;;;;;4.37;3.97;;;;;;;;;;5033071;28;20550;-76
2021/08/22 04:38:56;;;;;;;5.00;3.93;;;;;;;;;;5032861;28;20416;-76
2021/08/22 04:41:22;;;;;;;5.27;3.33;;;;;;;;;;5032702;28;20503;-76
2021/08/22 04:46:51;;;;;;;4.07;3.77;;;;;;;;;;5032798;28;20480;-75
2021/08/22 04:49:17;;;;;;;7.20;3.20;;;;;;;;;;5033108;28;20420;-76
2021/08/22 04:51:43;;;;;;;4.33;3.93;;;;;;;;;;5031822;28;20424;-76
2021/08/22 04:54:09;;;;;;;3.50;3.20;;;;;;;;;;5032643;28;20471;-75
2021/08/22 04:56:39;;;;;;;4.90;2.97;;;;;;;;;;5032634;28;20467;-75
2021/08/22 05:02:08;;;;;;;4.03;3.03;;;;;;;;;;5032696;28;20473;-76
2021/08/22 05:04:35;;;;;;;3.80;3.50;;;;;;;;;;5032676;28;20424;-73
2021/08/22 05:07:01;;;;;;;3.97;3.67;;;;;;;;;;5032563;28;20419;-74
2021/08/22 05:09:27;;;;;;;3.90;3.50;;;;;;;;;;5034527;28;20420;-75
2021/08/22 05:11:53;;;;;;;3.70;3.40;;;;;;;;;;5036926;28;20415;-75
2021/08/22 05:17:23;;;;;;;3.93;3.53;;;;;;;;;;5036430;28;20773;-75
2021/08/22 05:19:48;;;;;;;5.20;4.30;;;;;;;;;;5036610;28;20420;-74
2021/08/22 05:22:15;;;;;;;7.17;4.07;;;;;;;;;;5036461;28;20902;-75
2021/08/22 05:24:41;;;;;;;3.60;3.10;;;;;;;;;;5036374;28;20442;-75
2021/08/22 05:27:06;;;;;;;12.37;4.50;;;;;;;;;;5035160;28;20955;-76
2021/08/22 05:29:32;;;;;;;4.60;3.70;;;;;;;;;;5036271;28;20807;-75
2021/08/22 05:32:01;;;;;;;6.00;4.07;;;;;;;;;;5036386;28;20431;-74
2021/08/22 05:34:27;;;;;;;3.87;3.57;;;;;;;;;;5036350;28;20453;-76
2021/08/22 05:36:53;;;;;;;4.63;4.23;;;;;;;;;;5032083;28;20566;-74
2021/08/22 05:39:19;;;;;;;5.70;4.10;;;;;;;;;;5036309;28;20455;-75
2021/08/22 05:41:45;;;;;;;4.40;4.00;;;;;;;;;;5035844;28;20420;-75
2021/08/22 05:47:21;;;;;;;4.23;3.77;;;;;;;;;;5035024;28;20415;-73
2021/08/22 05:49:48;;;;;;;5.10;4.50;;;;;;;;;;5035240;28;20446;-75
2021/08/22 05:52:14;;;;;;;5.30;4.80;;;;;;;;;;5035303;28;20460;-74
2021/08/22 05:54:40;;;;;;;4.60;4.20;;;;;;;;;;5035163;28;20498;-74
2021/08/22 05:57:06;;;;;;;4.03;3.63;;;;;;;;;;5035062;28;20903;-75
2021/08/22 06:02:36;;;;;;;4.40;4.00;;;;;;;;;;5035714;28;20410;-75
2021/08/22 06:05:03;;;;;;;4.50;4.10;;;;;;;;;;5035310;28;20781;-75
2021/08/22 06:07:28;;;;;;;4.73;4.33;;;;;;;;;;5035806;28;20426;-75
2021/08/22 06:09:54;;;;;;;3.97;3.67;;;;;;;;;;5035147;28;20989;-75
2021/08/22 06:12:20;;;;;;;7.57;5.10;;;;;;;;;;5035514;28;20542;-74
2021/08/22 06:17:50;;;;;;;6.30;5.63;;;;;;;;;;5035525;28;20444;-75
2021/08/22 06:20:16;;;;;;;6.20;5.60;;;;;;;;;;5034473;28;20416;-76
2021/08/22 06:22:42;;;;;;;5.50;4.97;;;;;;;;;;5035331;28;20789;-75
2021/08/22 06:25:08;;;;;;;9.33;5.33;;;;;;;;;;5035369;28;20454;-75
2021/08/22 06:27:34;;;;;;;4.87;4.47;;;;;;;;;;5033928;28;20930;-76
2021/08/22 06:30:00;;;;;;;4.50;4.13;;;;;;;;;;5035188;28;20424;-75
2021/08/22 06:32:26;;;;;;;5.63;5.10;;;;;;;;;;5035225;28;20427;-76
2021/08/22 06:34:52;;;;;;;4.40;4.00;;;;;;;;;;5035153;28;20756;-76
2021/08/22 06:37:18;;;;;;;5.53;4.30;;;;;;;;;;5034998;28;20474;-77
2021/08/22 06:39:48;;;;;;;4.60;4.20;;;;;;;;;;5034826;28;20415;-75
2021/08/22 06:42:15;;;;;;;4.10;3.80;;;;;;;;;;5035288;28;20420;-76
2021/08/22 06:47:46;;;;;;;4.97;4.50;;;;;;;;;;5034914;28;20430;-75
2021/08/22 06:50:12;;;;;;;5.23;4.70;;;;;;;;;;5035135;28;20805;-74
2021/08/22 06:52:38;;;;;;;4.70;4.30;;;;;;;;;;5035184;28;20982;-74
2021/08/22 06:55:05;;;;;;;5.80;5.00;;;;;;;;;;5034498;28;20984;-75
2021/08/22 06:57:31;;;;;;;9.27;4.63;;;;;;;;;;5034696;28;20609;-75
2021/08/22 07:03:00;;;;;;;5.67;5.17;;;;;;;;;;5033878;28;20415;-75
2021/08/22 07:05:26;;;;;;;4.83;4.43;;;;;;;;;;5034132;28;20448;-75
2021/08/22 07:07:53;;;;;;;5.00;4.60;;;;;;;;;;5034144;28;20547;-74
2021/08/22 07:10:19;;;;;;;4.37;3.97;;;;;;;;;;5033826;28;20482;-75
2021/08/22 07:12:45;;;;;;;5.97;5.47;;;;;;;;;;5034034;28;20418;-77
2021/08/22 07:18:15;;;;;;;5.10;4.70;;;;;;;;;;5033822;28;20800;-73
2021/08/22 07:20:41;;;;;;;4.63;4.23;;;;;;;;;;5034076;28;20424;-74
2021/08/22 07:23:06;;;;;;;4.40;3.93;;;;;;;;;;5033995;28;20423;-75
2021/08/22 07:25:32;;;;;;;4.73;4.23;;;;;;;;;;5033664;28;20424;-77
2021/08/22 07:27:58;;;;;;;4.50;4.13;;;;;;;;;;5033993;28;20424;-78
2021/08/22 07:30:25;;;;;;;4.07;3.77;;;;;;;;;;5033719;28;20420;-74
2021/08/22 07:32:52;;;;;;;4.90;4.03;;;;;;;;;;5033015;28;20482;-76
2021/08/22 07:35:18;;;;;;;5.20;4.17;;;;;;;;;;5033248;28;20489;-77
2021/08/22 07:37:44;;;;;;;4.57;3.93;;;;;;;;;;5033109;28;20562;-75
2021/08/22 07:40:10;;;;;;;4.73;4.33;;;;;;;;;;5033513;28;20408;-76
2021/08/22 07:42:37;;;;;;;4.77;4.00;;;;;;;;;;5033842;28;20412;-75
2021/08/22 07:48:06;;;;;;;5.00;3.80;;;;;;;;;;5033402;28;20407;-75
2021/08/22 07:50:32;;;;;;;5.00;4.50;;;;;;;;;;5033433;28;20412;-73
2021/08/22 07:52:58;;;;;;;4.40;4.00;;;;;;;;;;5033444;28;20437;-73
2021/08/22 07:55:24;;;;;;;4.77;4.37;;;;;;;;;;5033576;28;20419;-72
2021/08/22 07:57:50;;;;;;;6.07;3.80;;;;;;;;;;5033113;28;20428;-74
2021/08/22 08:03:20;;;;;;;4.07;3.63;;;;;;;;;;5033305;28;20961;-73
2021/08/22 08:05:46;;;;;;;4.93;4.30;;;;;;;;;;5033229;28;20412;-74
2021/08/22 08:08:12;;;;;;;5.30;4.80;;;;;;;;;;5033549;28;20933;-73
2021/08/22 08:10:38;;;;;;;4.57;4.17;;;;;;;;;;5031614;28;20487;-74
2021/08/22 08:13:04;;;;;;;4.80;4.40;;;;;;;;;;5033296;28;20416;-74
2021/08/22 08:18:34;;;;;;;6.43;4.67;;;;;;;;;;5032703;28;20430;-75
2021/08/22 08:21:00;;;;;;;7.00;4.47;;;;;;;;;;5031644;28;20471;-74
2021/08/22 08:23:26;;;;;;;5.00;4.60;;;;;;;;;;5033023;28;20514;-74
2021/08/22 08:25:52;;;;;;;4.33;3.93;;;;;;;;;;5032961;28;20460;-73
2021/08/22 08:28:19;;;;;;;5.03;4.53;;;;;;;;;;5033078;28;20420;-74
2021/08/22 08:33:48;;;;;;;4.07;3.47;;;;;;;;;;5032821;28;20423;-74
2021/08/22 08:36:14;;;;;;;5.03;4.53;;;;;;;;;;5032944;28;20455;-74
2021/08/22 08:38:40;;;;;;;5.30;4.90;;;;;;;;;;5031347;28;20438;-73
2021/08/22 08:41:06;;;;;;;4.03;3.63;;;;;;;;;;5032557;28;20412;-73
2021/08/22 08:43:32;;;;;;;4.63;4.00;;;;;;;;;;5031868;28;20419;-74
2021/08/22 08:49:24;;;;;;;4.60;4.20;;;;;;;;;;5032828;28;20418;-73
2021/08/22 08:52:08;;;;;;;4.97;4.40;;;;;;;;;;5031381;28;20481;-73
2021/08/22 08:54:36;;;;;;;4.63;3.83;;;;;;;;;;5032387;28;20419;-73
2021/08/22 08:57:03;;;;;;;4.60;4.20;;;;;;;;;;5031966;28;20471;-73
2021/08/22 08:59:29;;;;;;;5.90;4.13;;;;;;;;;;5032189;28;20408;-73
2021/08/22 09:01:56;;;;;;;5.53;4.10;;;;;;;;;;5032381;28;20929;-73
2021/08/22 09:04:28;;;;;;;4.87;4.37;;;;;;;;;;5032868;28;20491;-73
2021/08/22 09:06:54;;;;;;;4.37;3.97;;;;;;;;;;5032712;28;20423;-73
2021/08/22 09:09:20;;;;;;;5.90;4.70;;;;;;;;;;5032312;28;20450;-73
2021/08/22 09:11:55;;;;;;;5.13;4.27;;;;;;;;;;5032280;28;20475;-73
